Startpagina
METAR-TAF:

METAR-TAF

Vliegvelden :

Vliegbasis Koksijde

Koksijde, België

breedte: 51-05N, lengte: 002-39E, hoogte: 4 m

Actueel weer

Dit bericht is 34 minuten geleden gemaakt, om 10:03 UTC
Wind 15 kt uit het zuidwesten
Temperatuur 20°C
Vochtigheid 68%
Druk 1016 hPa
Zicht 10 km of meer
Weinig wolken op 2600 ft

METAR: EBFN 191003Z 22015KT 9999 FEW026 20/14 Q1016 BLU BLU

Tijdstip: 12:37 (10:37 UTC)

Verwachting

Dit bericht is 1 uur en het 56 minuten geleden gemaakt, om 08:41 UTC
Verwachting geldig van 19 om 10 UTC tot 19 om 19 UTC
Wind 15 kt uit het zuidwesten met uitschieters tot 25 kt
Weinig wolken op 2500 ft
Verspreide wolken op 12000 ft
Verspreide wolken op 20000 ft
Wijzigt naar
van 19 om 11 UTC tot 19 om 13 UTC
Wind 20 kt uit het zuidwesten met uitschieters tot 33 kt
Verspreide wolken op 2800 ft
Verspreide wolken op 10000 ft
Gebroken wolken op 18000 ft

TAF: EBFN 190841Z 1910/1919 22015G25KT FEW025 SCT120 SCT200 BECMG 1911/1913 23020G33KT SCT028 SCT100 BKN180

Waarnemingen en weersverwachtingen van meer dan 4000 vliegvelden (METAR en TAF).

De beschikbare stations zijn de gele en rode punten op de kaart.

Ga met uw muis naar het station om de naam te zien.

Klik dan om waarnemingen en weersverwachtingen te zien.

kaart wijzigen: klik op de groene knoppen met een zwart kruis om in te zoomen, op de groene knop met een streepje om uit te zoomen of op de groene pijlen voor aangrenzende kaarten.


METAR-TAF: